aviador You're here:

KRKR Decoded Metar

POTEAU (R KERR) in OK, USA
Report Time2017-07-24 16:35:00
UTC Time2017-07-24 16:46:35
Flight Rules vfr VFR
WindCalm
Visibility9999 m
Phenomena:N/A
Clouds:N/A
Expected CloudBase > 2,400 ft AGL from Temp-Dew spread
CeilingNone
Temp28°C (ISA +14)
Dew Point22°C (70% RH)
Heat Index30.7°C
QNH1016 hPa
Density Alt2,300 ft
Elevation453 ft
Report Wrong Elevation
Raw Report
KRKR 241635Z AUTO 00000KT 10SM CLR 28/22 A2999 RMK AO2=

Extra information for KRKR:More info

Metar Taf Metar & Taf Last 4 Metars F.Rules Stats Wind Profile Meteogram Temp Stats Airport Information Weather charts Add Link Nearby VenuesMetar ALERT Operation Metar Decoded Social comments

AIRNAV info for KRKR